createdAt,value
2022-10-03T00:01:36.101Z,72.12
2022-10-03T00:04:42.203Z,72.16
2022-10-03T00:07:37.849Z,72.11
2022-10-03T00:10:23.167Z,72.23
2022-10-03T00:13:09.744Z,71.83
2022-10-03T00:16:11.590Z,72.55
2022-10-03T00:19:30.491Z,72.25
2022-10-03T00:22:20.094Z,72.03
2022-10-03T00:25:16.269Z,72.28
2022-10-03T00:28:07.343Z,72.34
2022-10-03T00:31:04.269Z,72.29
2022-10-03T00:33:47.038Z,72.20
2022-10-03T00:36:35.856Z,72.29
2022-10-03T00:39:19.471Z,72.65
2022-10-03T00:42:33.733Z,73.07
2022-10-03T00:45:04.907Z,72.89
2022-10-03T00:48:08.023Z,72.50
2022-10-03T00:50:50.925Z,72.74
2022-10-03T00:53:44.176Z,73.03
2022-10-03T00:56:27.050Z,72.68
2022-10-03T00:59:36.768Z,72.92
2022-10-03T01:02:43.377Z,72.60
2022-10-03T01:05:13.429Z,72.76
2022-10-03T01:07:53.437Z,72.82
2022-10-03T01:11:01.221Z,73.55
2022-10-03T01:13:54.985Z,72.81
2022-10-03T01:16:46.438Z,73.11
2022-10-03T01:19:14.920Z,72.63
2022-10-03T01:22:28.750Z,73.27
2022-10-03T01:25:19.340Z,73.40
2022-10-03T01:28:18.891Z,73.22
2022-10-03T01:30:53.663Z,73.17
2022-10-03T01:33:26.266Z,73.19
2022-10-03T01:36:30.111Z,72.90
2022-10-03T01:39:09.926Z,73.34
2022-10-03T01:42:05.128Z,73.29
2022-10-03T01:44:46.319Z,73.47
2022-10-03T01:47:23.234Z,73.53
2022-10-03T01:50:06.389Z,73.81
2022-10-03T01:52:37.895Z,73.04
2022-10-03T01:55:15.661Z,73.49
2022-10-03T01:57:51.748Z,73.60
2022-10-03T02:00:27.278Z,73.23
2022-10-03T02:03:30.978Z,73.61
2022-10-03T02:06:11.976Z,73.21
2022-10-03T02:09:07.649Z,72.84
2022-10-03T02:12:09.285Z,72.41
2022-10-03T02:14:54.611Z,71.33
2022-10-03T02:17:43.067Z,71.70
2022-10-03T02:20:47.790Z,71.46
2022-10-03T02:23:40.023Z,71.44
2022-10-03T02:26:21.906Z,71.53
2022-10-03T02:29:32.465Z,71.61
2022-10-03T02:32:25.104Z,71.94
2022-10-03T02:35:24.505Z,71.06
2022-10-03T02:38:20.523Z,71.47
2022-10-03T02:41:33.508Z,70.78
2022-10-03T02:44:10.798Z,71.01
2022-10-03T02:47:01.862Z,71.51
2022-10-03T02:49:58.899Z,69.93
2022-10-03T02:52:51.859Z,69.68
2022-10-03T02:55:54.530Z,69.99
2022-10-03T02:58:44.422Z,70.14
2022-10-03T03:01:21.884Z,69.36
2022-10-03T03:04:38.106Z,68.69
2022-10-03T03:07:12.318Z,68.44
2022-10-03T03:10:07.756Z,68.80
2022-10-03T03:12:43.580Z,67.96
2022-10-03T03:15:42.669Z,68.04
2022-10-03T03:18:26.464Z,67.15
2022-10-03T03:21:06.554Z,65.40
2022-10-03T03:24:10.580Z,63.69
2022-10-03T03:27:10.797Z,65.44
2022-10-03T03:30:06.617Z,64.04
2022-10-03T03:32:54.969Z,63.60
2022-10-03T03:35:47.146Z,62.27
2022-10-03T03:38:49.559Z,62.42
2022-10-03T03:41:37.408Z,62.48
2022-10-03T03:44:49.724Z,61.72
2022-10-03T03:47:50.176Z,60.69
2022-10-03T03:50:33.520Z,60.41
2022-10-03T03:53:20.440Z,60.61
2022-10-03T03:56:04.418Z,58.29
2022-10-03T03:59:00.101Z,59.45
2022-10-03T04:01:28.177Z,60.56
2022-10-03T04:04:24.493Z,60.89
2022-10-03T04:06:54.861Z,60.58
2022-10-03T04:09:29.341Z,60.42
2022-10-03T04:12:08.177Z,60.73
2022-10-03T04:14:54.730Z,61.27
2022-10-03T04:18:08.870Z,61.12
2022-10-03T04:20:37.202Z,61.47
2022-10-03T04:23:44.118Z,60.54
2022-10-03T04:26:19.718Z,61.26
2022-10-03T04:29:32.979Z,61.34
2022-10-03T04:32:08.559Z,61.58
2022-10-03T04:34:45.893Z,61.63
2022-10-03T04:37:35.598Z,60.61
2022-10-03T04:40:22.734Z,60.30
2022-10-03T04:43:24.257Z,60.67
2022-10-03T04:46:06.574Z,60.46
2022-10-03T04:49:16.693Z,60.03
2022-10-03T04:51:59.888Z,58.72
2022-10-03T04:54:28.258Z,58.74
2022-10-03T04:57:16.096Z,58.47
2022-10-03T05:00:04.506Z,57.90
2022-10-03T05:02:56.053Z,58.34
2022-10-03T05:05:47.518Z,57.38
2022-10-03T05:08:34.264Z,56.36
2022-10-03T05:11:12.939Z,55.60
2022-10-03T05:14:00.966Z,54.69
2022-10-03T05:16:43.088Z,55.40
2022-10-03T05:19:41.605Z,54.51
2022-10-03T05:22:34.170Z,54.80
2022-10-03T05:25:30.222Z,52.99
2022-10-03T05:28:37.606Z,52.52
2022-10-03T05:31:28.066Z,51.86
2022-10-03T05:34:08.238Z,52.35
2022-10-03T05:37:04.809Z,52.40
2022-10-03T05:39:51.304Z,51.69
2022-10-03T05:42:53.354Z,51.25
2022-10-03T05:45:39.932Z,48.92
2022-10-03T05:48:16.107Z,50.03
2022-10-03T05:51:13.976Z,49.03
2022-10-03T05:54:11.278Z,48.86
2022-10-03T05:57:16.439Z,48.56
2022-10-03T06:00:02.956Z,49.50
2022-10-03T06:03:09.897Z,48.35
2022-10-03T06:05:59.891Z,47.37
2022-10-03T06:08:49.101Z,47.61
2022-10-03T06:11:54.102Z,44.47
2022-10-03T06:14:36.161Z,45.57
2022-10-03T06:17:32.203Z,47.09
2022-10-03T06:20:38.129Z,44.41
2022-10-03T06:23:23.165Z,45.43
2022-10-03T06:26:24.969Z,44.08
2022-10-03T06:29:21.724Z,45.38
2022-10-03T06:32:03.927Z,45.38
2022-10-03T06:34:53.799Z,42.77
2022-10-03T06:37:44.360Z,43.49
2022-10-03T06:40:41.646Z,43.47
2022-10-03T06:43:22.925Z,43.29
2022-10-03T06:46:04.903Z,42.80
2022-10-03T06:48:42.494Z,43.06
2022-10-03T06:51:30.734Z,42.30
2022-10-03T06:54:08.114Z,43.21
2022-10-03T06:57:09.487Z,43.03
2022-10-03T06:59:46.783Z,42.27
2022-10-03T07:02:34.018Z,41.09
2022-10-03T07:05:10.780Z,41.84
2022-10-03T07:08:12.377Z,42.47
2022-10-03T07:11:11.893Z,42.58
2022-10-03T07:14:16.880Z,41.72
2022-10-03T07:17:39.848Z,41.82
2022-10-03T07:20:55.995Z,41.52
2022-10-03T07:23:27.432Z,40.91
2022-10-03T07:26:07.481Z,41.06
2022-10-03T07:29:16.287Z,40.72
2022-10-03T07:32:20.524Z,41.34
2022-10-03T07:35:22.446Z,40.60
2022-10-03T07:38:36.953Z,41.13
2022-10-03T07:41:23.473Z,40.01
2022-10-03T07:44:14.199Z,40.33
2022-10-03T07:47:05.000Z,39.67
2022-10-03T07:49:43.394Z,40.58
2022-10-03T07:52:30.222Z,39.29
2022-10-03T07:55:04.572Z,39.52
2022-10-03T07:57:44.586Z,39.82
2022-10-03T08:00:48.322Z,40.22
2022-10-03T08:03:45.774Z,39.96
2022-10-03T08:06:27.022Z,39.65
2022-10-03T08:09:16.743Z,39.88
2022-10-03T08:12:16.271Z,39.66
2022-10-03T08:15:05.504Z,39.76
2022-10-03T08:17:52.823Z,39.71
2022-10-03T08:20:39.277Z,39.10
2022-10-03T08:23:26.306Z,38.95
2022-10-03T08:26:15.594Z,39.07
2022-10-03T08:29:09.884Z,38.23
2022-10-03T08:32:05.232Z,39.60
2022-10-03T08:34:36.536Z,39.26
2022-10-03T08:37:40.012Z,38.62
2022-10-03T08:40:41.168Z,39.27
2022-10-03T08:43:42.538Z,39.24
2022-10-03T08:46:37.407Z,40.12
2022-10-03T08:49:14.960Z,40.34
2022-10-03T08:51:44.587Z,39.21
2022-10-03T08:54:41.815Z,39.25
2022-10-03T08:57:15.973Z,39.12
2022-10-03T09:00:03.051Z,39.25
2022-10-03T09:03:13.675Z,38.90
2022-10-03T09:06:33.936Z,39.16
2022-10-03T09:09:40.030Z,39.65
2022-10-03T09:12:26.872Z,40.05
2022-10-03T09:15:25.732Z,39.08
2022-10-03T09:18:05.175Z,39.78
2022-10-03T09:20:39.338Z,39.63
2022-10-03T09:23:41.187Z,39.76
2022-10-03T09:26:37.275Z,39.52
2022-10-03T09:29:29.682Z,39.40
2022-10-03T09:32:06.885Z,39.37
2022-10-03T09:35:01.746Z,39.47
2022-10-03T09:38:12.489Z,39.82
2022-10-03T09:41:20.990Z,39.45
2022-10-03T09:44:07.599Z,40.37
2022-10-03T09:47:19.242Z,39.49
2022-10-03T09:50:24.784Z,40.35
2022-10-03T09:53:30.990Z,39.93
2022-10-03T09:56:24.012Z,40.31
2022-10-03T09:59:14.447Z,40.24
2022-10-03T10:02:19.537Z,39.95
2022-10-03T10:05:26.565Z,39.91
2022-10-03T10:08:15.130Z,40.31
2022-10-03T10:11:05.418Z,40.18
2022-10-03T10:14:18.517Z,40.09
2022-10-03T10:17:30.017Z,41.06
2022-10-03T10:20:29.679Z,40.76
2022-10-03T10:23:19.719Z,40.65
2022-10-03T10:26:29.246Z,40.72
2022-10-03T10:29:34.720Z,40.43
2022-10-03T10:32:27.339Z,40.08
2022-10-03T10:35:17.668Z,40.03
2022-10-03T10:38:16.128Z,40.23
2022-10-03T10:41:18.279Z,40.57
2022-10-03T10:44:11.682Z,40.99
2022-10-03T10:46:40.589Z,41.06
2022-10-03T10:49:30.529Z,41.24
2022-10-03T10:51:58.960Z,40.28
2022-10-03T10:54:58.239Z,40.34
2022-10-03T10:58:12.679Z,40.90
2022-10-03T11:01:13.727Z,40.58
2022-10-03T11:04:01.201Z,41.63
2022-10-03T11:07:08.436Z,41.67
2022-10-03T11:10:02.429Z,40.50
2022-10-03T11:12:57.237Z,41.17
2022-10-03T11:15:44.230Z,41.17
2022-10-03T11:19:00.439Z,41.22
2022-10-03T11:21:31.979Z,40.88
2022-10-03T11:24:35.702Z,40.94
2022-10-03T11:27:42.820Z,42.14
2022-10-03T11:30:45.292Z,42.02
2022-10-03T11:33:31.846Z,42.06
2022-10-03T11:36:00.494Z,42.35
2022-10-03T11:38:33.699Z,42.85
2022-10-03T11:41:41.491Z,42.88
2022-10-03T11:44:37.207Z,42.36
2022-10-03T11:47:30.480Z,43.33
2022-10-03T11:50:22.051Z,43.35
2022-10-03T11:53:12.207Z,44.48
2022-10-03T11:55:56.101Z,44.77
2022-10-03T11:58:48.859Z,45.80
2022-10-03T12:01:54.886Z,45.04
2022-10-03T12:04:41.771Z,45.52
2022-10-03T12:07:58.155Z,46.44
2022-10-03T12:11:15.012Z,47.02
2022-10-03T12:14:08.714Z,46.79
2022-10-03T12:17:02.110Z,47.75
2022-10-03T12:19:33.461Z,48.09
2022-10-03T12:22:13.699Z,49.15
2022-10-03T12:24:48.171Z,49.54
2022-10-03T12:27:28.955Z,50.17
2022-10-03T12:30:01.296Z,50.78
2022-10-03T12:32:50.511Z,50.50
2022-10-03T12:35:51.440Z,50.78
2022-10-03T12:38:51.025Z,51.77
2022-10-03T12:41:44.981Z,51.87
2022-10-03T12:44:38.140Z,52.19
2022-10-03T12:47:54.839Z,53.10
2022-10-03T12:50:43.947Z,53.05
2022-10-03T12:53:18.921Z,52.87
2022-10-03T12:56:08.688Z,52.96
2022-10-03T12:59:25.659Z,53.52
2022-10-03T13:02:31.338Z,53.65
2022-10-03T13:05:38.381Z,54.15
2022-10-03T13:08:42.199Z,53.97
2022-10-03T13:11:29.716Z,54.33
2022-10-03T13:14:29.080Z,54.00
2022-10-03T13:17:23.108Z,54.28
2022-10-03T13:20:05.000Z,55.45
2022-10-03T13:22:45.232Z,55.63
2022-10-03T13:25:36.799Z,55.48
2022-10-03T13:28:10.729Z,55.93
2022-10-03T13:30:48.420Z,56.32
2022-10-03T13:33:23.036Z,56.78
2022-10-03T13:36:03.599Z,57.10
2022-10-03T13:38:50.874Z,58.06
2022-10-03T13:41:37.920Z,58.11
2022-10-03T13:44:45.320Z,57.81
2022-10-03T13:47:44.939Z,58.20
2022-10-03T13:50:29.801Z,58.35
2022-10-03T13:53:26.821Z,58.90
2022-10-03T13:56:02.480Z,59.00
2022-10-03T13:58:53.519Z,59.21
2022-10-03T14:01:35.804Z,59.50
2022-10-03T14:04:44.427Z,59.96
2022-10-03T14:07:26.855Z,59.77
2022-10-03T14:10:18.538Z,60.98
2022-10-03T14:13:13.565Z,60.85
2022-10-03T14:15:59.682Z,61.00
2022-10-03T14:18:31.378Z,61.49
2022-10-03T14:21:24.640Z,61.75
2022-10-03T14:24:18.021Z,62.46
2022-10-03T14:27:25.307Z,62.83
2022-10-03T14:30:07.526Z,62.39
2022-10-03T14:32:54.960Z,62.10
2022-10-03T14:35:47.801Z,61.77
2022-10-03T14:38:24.932Z,61.76
2022-10-03T14:41:06.290Z,62.01
2022-10-03T14:43:56.321Z,62.09
2022-10-03T14:46:28.322Z,62.35
2022-10-03T14:49:04.100Z,63.16
2022-10-03T14:51:32.582Z,63.56
2022-10-03T14:54:06.958Z,63.08
2022-10-03T14:56:48.001Z,63.14
2022-10-03T14:59:30.353Z,63.04
2022-10-03T15:02:00.837Z,63.32
2022-10-03T15:04:42.740Z,63.71
2022-10-03T15:07:14.560Z,64.00
2022-10-03T15:09:47.921Z,62.89
2022-10-03T15:12:25.164Z,63.24
2022-10-03T15:15:00.440Z,63.75
2022-10-03T15:17:32.779Z,63.96
2022-10-03T15:20:03.878Z,64.31
2022-10-03T15:22:43.049Z,64.53
2022-10-03T15:25:45.259Z,63.80
2022-10-03T15:28:20.566Z,63.62
2022-10-03T15:30:54.886Z,63.66
2022-10-03T15:33:34.939Z,64.17
2022-10-03T15:36:18.189Z,64.24
2022-10-03T15:38:53.740Z,64.78
2022-10-03T15:41:57.760Z,64.99
2022-10-03T15:44:40.701Z,65.12
2022-10-03T15:47:28.145Z,65.33
2022-10-03T15:50:19.700Z,64.96
2022-10-03T15:52:53.403Z,65.08
2022-10-03T15:55:33.448Z,64.99
2022-10-03T15:58:23.449Z,65.26
2022-10-03T16:01:19.339Z,65.41
2022-10-03T16:03:52.700Z,65.34
2022-10-03T16:06:36.020Z,65.41
2022-10-03T16:09:15.557Z,65.55
2022-10-03T16:12:35.669Z,66.13
2022-10-03T16:15:17.338Z,66.10
2022-10-03T16:17:51.977Z,65.74
2022-10-03T16:20:24.041Z,65.71
2022-10-03T16:22:58.561Z,66.11
2022-10-03T16:25:32.741Z,66.19
2022-10-03T16:28:12.894Z,66.07
2022-10-03T16:31:02.699Z,66.32
2022-10-03T16:33:39.660Z,66.38
2022-10-03T16:36:11.369Z,66.95
2022-10-03T16:38:46.236Z,66.56
2022-10-03T16:41:25.411Z,66.27
2022-10-03T16:43:58.330Z,66.09
2022-10-03T16:46:39.781Z,66.84
2022-10-03T16:49:51.020Z,66.67
2022-10-03T16:52:31.279Z,67.08
2022-10-03T16:55:04.392Z,67.60
2022-10-03T16:57:39.409Z,67.36
2022-10-03T17:00:18.358Z,67.70
2022-10-03T17:02:48.072Z,67.62
2022-10-03T17:05:18.638Z,67.49
2022-10-03T17:07:52.612Z,67.76
2022-10-03T17:10:41.721Z,67.44
2022-10-03T17:13:24.142Z,67.57
2022-10-03T17:16:04.845Z,68.00
2022-10-03T17:18:47.849Z,68.06
2022-10-03T17:21:26.715Z,68.11
2022-10-03T17:23:58.220Z,68.48
2022-10-03T17:26:39.192Z,68.50
2022-10-03T17:29:28.739Z,68.54
2022-10-03T17:32:24.560Z,68.82
2022-10-03T17:35:15.138Z,68.10
2022-10-03T17:38:30.860Z,68.66
2022-10-03T17:41:15.921Z,68.81
2022-10-03T17:44:10.267Z,68.35
2022-10-03T17:47:12.340Z,68.71
2022-10-03T17:49:41.340Z,69.29
2022-10-03T17:52:19.640Z,69.37
2022-10-03T17:55:02.944Z,69.72
2022-10-03T17:57:48.358Z,69.68
2022-10-03T18:00:23.739Z,70.06
2022-10-03T18:03:12.199Z,69.76
2022-10-03T18:05:46.924Z,69.88
2022-10-03T18:08:27.452Z,69.35
2022-10-03T18:10:59.697Z,69.92
2022-10-03T18:13:43.080Z,69.41
2022-10-03T18:16:19.912Z,69.80
2022-10-03T18:19:14.587Z,69.97
2022-10-03T18:22:03.183Z,70.05
2022-10-03T18:24:57.657Z,70.30
2022-10-03T18:27:52.159Z,70.12
2022-10-03T18:30:33.500Z,70.49
2022-10-03T18:33:03.159Z,70.38
2022-10-03T18:35:36.811Z,70.34
2022-10-03T18:38:22.459Z,70.91
2022-10-03T18:40:59.960Z,70.84
2022-10-03T18:43:47.755Z,71.39
2022-10-03T18:46:25.403Z,71.04
2022-10-03T18:49:33.483Z,70.94
2022-10-03T18:52:20.118Z,71.47
2022-10-03T18:54:54.530Z,71.23
2022-10-03T18:57:45.345Z,71.03
2022-10-03T19:00:21.220Z,71.44
2022-10-03T19:03:09.559Z,71.71
2022-10-03T19:05:41.081Z,71.57
2022-10-03T19:08:21.685Z,72.05
2022-10-03T19:11:02.038Z,71.63
2022-10-03T19:13:39.500Z,71.79
2022-10-03T19:16:30.548Z,72.21
2022-10-03T19:19:15.721Z,72.40
2022-10-03T19:21:44.281Z,72.92
2022-10-03T19:24:40.144Z,72.13
2022-10-03T19:27:18.799Z,72.31
2022-10-03T19:29:59.698Z,72.34
2022-10-03T19:32:35.279Z,72.13
2022-10-03T19:35:06.541Z,72.70
2022-10-03T19:37:46.091Z,72.89
2022-10-03T19:40:43.214Z,73.08
2022-10-03T19:43:38.378Z,72.73
2022-10-03T19:46:25.148Z,72.28
2022-10-03T19:48:59.685Z,72.42
2022-10-03T19:51:29.142Z,72.34
2022-10-03T19:53:58.479Z,72.65
2022-10-03T19:56:32.222Z,73.57
2022-10-03T19:59:18.262Z,73.83
2022-10-03T20:01:49.493Z,73.39
2022-10-03T20:04:36.726Z,73.87
2022-10-03T20:07:18.109Z,73.69
2022-10-03T20:09:59.014Z,73.84
2022-10-03T20:12:32.386Z,73.37
2022-10-03T20:15:18.005Z,73.35
2022-10-03T20:17:47.120Z,73.21
2022-10-03T20:20:24.980Z,73.51
2022-10-03T20:22:56.687Z,73.26
2022-10-03T20:25:33.806Z,73.45
2022-10-03T20:28:06.833Z,73.02
2022-10-03T20:30:45.989Z,73.74
2022-10-03T20:33:27.991Z,72.90
2022-10-03T20:36:16.251Z,73.04
2022-10-03T20:39:03.418Z,73.60
2022-10-03T20:41:44.579Z,73.54
2022-10-03T20:44:18.029Z,73.54
2022-10-03T20:46:55.038Z,73.83
2022-10-03T20:49:52.882Z,73.59
2022-10-03T20:52:23.590Z,73.92
2022-10-03T20:55:01.626Z,73.91
2022-10-03T20:58:08.410Z,73.63
2022-10-03T21:00:47.595Z,73.97
2022-10-03T21:03:36.716Z,74.17
2022-10-03T21:06:17.818Z,74.12
2022-10-03T21:08:47.563Z,74.17
2022-10-03T21:11:26.300Z,74.20
2022-10-03T21:14:00.517Z,74.71
2022-10-03T21:16:33.426Z,74.73
2022-10-03T21:19:14.960Z,74.32
2022-10-03T21:21:53.711Z,74.24
2022-10-03T21:25:11.395Z,74.44
2022-10-03T21:27:51.131Z,74.58
2022-10-03T21:30:23.365Z,74.33
2022-10-03T21:33:19.172Z,74.70
2022-10-03T21:35:50.872Z,74.52
2022-10-03T21:38:25.711Z,74.38
2022-10-03T21:41:18.461Z,74.43
2022-10-03T21:44:05.915Z,74.65
2022-10-03T21:46:37.284Z,74.88
2022-10-03T21:49:27.090Z,74.64
2022-10-03T21:52:10.692Z,74.49
2022-10-03T21:55:00.825Z,74.77
2022-10-03T21:57:44.046Z,75.00
2022-10-03T22:00:20.730Z,75.35
2022-10-03T22:03:02.520Z,74.95
2022-10-03T22:05:45.643Z,74.89
2022-10-03T22:08:30.511Z,74.81
2022-10-03T22:11:29.368Z,74.69
2022-10-03T22:14:34.887Z,75.18
2022-10-03T22:17:10.702Z,74.66
2022-10-03T22:19:52.137Z,75.07
2022-10-03T22:23:17.362Z,75.34
2022-10-03T22:26:04.627Z,75.39
2022-10-03T22:28:58.347Z,74.81
2022-10-03T22:31:55.378Z,75.30
2022-10-03T22:35:00.732Z,74.61
2022-10-03T22:37:29.741Z,74.98
2022-10-03T22:40:03.208Z,75.85
2022-10-03T22:42:41.737Z,75.23
2022-10-03T22:45:13.770Z,75.92
2022-10-03T22:47:44.529Z,75.80
2022-10-03T22:50:19.239Z,75.79
2022-10-03T22:52:49.722Z,75.34
2022-10-03T22:55:21.115Z,74.96
2022-10-03T22:57:51.943Z,75.58
2022-10-03T23:00:29.392Z,75.73
2022-10-03T23:03:13.947Z,75.47
2022-10-03T23:06:20.103Z,75.63
2022-10-03T23:08:56.922Z,75.60
2022-10-03T23:11:29.592Z,75.49
2022-10-03T23:14:04.898Z,75.93
2022-10-03T23:16:52.518Z,75.74
2022-10-03T23:19:38.614Z,75.84
2022-10-03T23:22:15.649Z,75.80
2022-10-03T23:24:54.364Z,75.93
2022-10-03T23:27:31.499Z,76.01
2022-10-03T23:30:17.994Z,76.08
2022-10-03T23:32:49.333Z,76.26
2022-10-03T23:35:36.126Z,76.20
2022-10-03T23:38:36.864Z,75.93
2022-10-03T23:41:10.622Z,76.10
2022-10-03T23:43:56.407Z,75.79
2022-10-03T23:46:28.355Z,76.12
2022-10-03T23:49:00.175Z,76.43
2022-10-03T23:51:33.547Z,76.94
2022-10-03T23:54:06.020Z,76.84
2022-10-03T23:56:41.049Z,76.83
2022-10-03T23:59:20.490Z,76.48
